Time;durP1;ratioP1;P1;durP2;ratioP2;P2;SDS_P1;SDS_P2;PMS_P1;PMS_P2;Temp;Humidity;BMP_temperature;BMP_pressure;BME280_temperature;BME280_humidity;BME280_pressure;Samples;Min_cycle;Max_cycle;Signal;HPM_P1;HPM_P2
2021/08/10 00:02:26;;;;;;;10.05;9.02;;;;;;;21.00;67.51;95298.25;5106126;28;20081;-69
2021/08/10 00:04:53;;;;;;;15.77;8.85;;;;;;;20.97;67.89;95290.88;5105585;28;20051;-69
2021/08/10 00:07:21;;;;;;;15.18;8.57;;;;;;;21.00;68.22;95300.91;5104568;28;20051;-69
2021/08/10 00:09:48;;;;;;;12.23;9.43;;;;;;;21.01;67.80;95302.47;5106839;27;20035;-69
2021/08/10 00:12:15;;;;;;;12.27;8.90;;;;;;;21.00;67.59;95308.84;5110779;27;20063;-69
2021/08/10 00:14:42;;;;;;;12.90;8.97;;;;;;;21.02;67.93;95305.91;5112341;27;20051;-69
2021/08/10 00:17:09;;;;;;;15.45;9.32;;;;;;;21.00;67.80;95314.13;5095494;27;20039;-69
2021/08/10 00:19:36;;;;;;;11.90;8.23;;;;;;;21.01;68.00;95313.03;5114331;27;20048;-69
2021/08/10 00:22:02;;;;;;;11.40;9.85;;;;;;;20.96;68.18;95299.91;5112780;27;20093;-69
2021/08/10 00:24:29;;;;;;;19.13;8.57;;;;;;;20.98;68.27;95311.78;5106223;28;20062;-69
2021/08/10 00:26:58;;;;;;;14.82;8.57;;;;;;;20.92;68.12;95310.28;5106134;28;20100;-69
2021/08/10 00:29:25;;;;;;;18.40;8.57;;;;;;;20.86;69.08;95300.81;5106371;28;20051;-69
2021/08/10 00:31:52;;;;;;;13.05;9.20;;;;;;;20.85;68.88;95301.09;5105901;28;20405;-69
2021/08/10 00:34:19;;;;;;;16.67;8.93;;;;;;;20.74;69.15;95303.88;5091854;27;20174;-69
2021/08/10 00:36:46;;;;;;;12.23;9.32;;;;;;;20.73;70.17;95302.28;5095187;28;20043;-69
2021/08/10 00:39:13;;;;;;;14.48;10.90;;;;;;;20.70;70.52;95302.84;5111872;27;20486;-69
2021/08/10 00:41:40;;;;;;;15.65;10.25;;;;;;;20.69;70.67;95298.63;5094565;27;20043;-69
2021/08/10 00:44:08;;;;;;;14.60;10.70;;;;;;;20.69;70.69;95306.59;5093788;28;20462;-69
2021/08/10 00:46:35;;;;;;;18.10;10.18;;;;;;;20.65;70.09;95300.25;5094708;27;20591;-69
2021/08/10 00:49:02;;;;;;;14.90;10.40;;;;;;;20.64;70.27;95304.00;5093438;28;20039;-69
2021/08/10 00:51:34;;;;;;;15.32;10.70;;;;;;;20.49;71.64;95302.28;5091941;28;20044;-69
2021/08/10 00:54:10;;;;;;;11.90;10.07;;;;;;;20.19;72.72;95292.81;5088522;28;20539;-69
2021/08/10 00:56:42;;;;;;;17.55;10.52;;;;;;;20.07;73.64;95290.53;5088727;28;20076;-69
2021/08/10 00:59:10;;;;;;;14.50;11.35;;;;;;;20.14;72.59;95292.88;5094959;28;20047;-69
2021/08/10 01:01:43;;;;;;;16.00;10.93;;;;;;;20.23;71.74;95283.25;5093193;28;20115;-69
2021/08/10 01:04:10;;;;;;;17.05;11.00;;;;;;;20.32;71.73;95286.84;5093077;28;20050;-70
2021/08/10 01:06:47;;;;;;;13.02;11.07;;;;;;;20.35;71.82;95288.94;5094485;28;20082;-69
2021/08/10 01:09:25;;;;;;;16.42;10.65;;;;;;;20.36;71.69;95282.56;5093482;28;20063;-69
2021/08/10 01:12:04;;;;;;;15.07;11.60;;;;;;;20.33;71.48;95293.72;5094433;28;20490;-69
2021/08/10 01:14:50;;;;;;;20.45;12.18;;;;;;;20.35;71.99;95296.88;5091164;28;20048;-69
2021/08/10 01:17:31;;;;;;;16.15;11.35;;;;;;;20.32;71.54;95294.00;5096309;27;20039;-69
2021/08/10 01:20:05;;;;;;;14.65;10.85;;;;;;;20.27;71.90;95300.13;5098752;27;20047;-69
2021/08/10 01:22:38;;;;;;;16.70;11.82;;;;;;;20.29;72.40;95303.28;5097401;27;20543;-69
2021/08/10 01:25:43;;;;;;;18.48;10.85;;;;;;;20.30;72.52;95309.38;5095785;27;20078;-69
2021/08/10 01:28:26;;;;;;;16.75;11.43;;;;;;;20.25;73.32;95312.84;5116454;27;20040;-69
2021/08/10 01:31:02;;;;;;;13.73;10.63;;;;;;;20.24;73.34;95311.28;5097928;27;20066;-69
2021/08/10 01:33:33;;;;;;;13.13;10.75;;;;;;;20.22;72.34;95318.69;5116487;27;20100;-70
2021/08/10 01:36:03;;;;;;;16.58;12.00;;;;;;;20.27;72.79;95310.69;5117041;27;20040;-70
2021/08/10 01:38:32;;;;;;;18.55;11.88;;;;;;;20.28;71.91;95311.50;5097083;28;20047;-69
2021/08/10 01:41:01;;;;;;;20.95;12.60;;;;;;;20.29;71.57;95303.28;5098372;27;20436;-69
2021/08/10 01:43:31;;;;;;;20.13;12.60;;;;;;;20.29;71.12;95292.69;5095600;27;20043;-69
2021/08/10 01:46:00;;;;;;;20.58;10.90;;;;;;;20.27;72.32;95289.53;5093947;28;20078;-69
2021/08/10 01:48:32;;;;;;;16.35;10.10;;;;;;;20.25;72.11;95291.69;5095184;27;20424;-69
2021/08/10 01:51:00;;;;;;;16.40;10.55;;;;;;;20.17;71.16;95284.38;5092102;28;20049;-69
2021/08/10 01:53:29;;;;;;;11.73;10.38;;;;;;;20.17;71.11;95284.38;5093541;28;20071;-69
2021/08/10 01:55:59;;;;;;;16.20;10.15;;;;;;;20.14;71.25;95290.22;5091878;27;20040;-69
2021/08/10 01:58:36;;;;;;;24.25;12.13;;;;;;;20.10;71.25;95295.28;5091567;28;20048;-69
2021/08/10 02:01:04;;;;;;;17.05;11.40;;;;;;;20.05;72.01;95290.81;5094489;27;20504;-69
2021/08/10 02:03:34;;;;;;;19.05;11.43;;;;;;;19.94;72.68;95292.00;5093605;27;20044;-69
2021/08/10 02:06:09;;;;;;;17.10;10.85;;;;;;;19.92;72.94;95293.34;5094027;27;20093;-70
2021/08/10 02:08:40;;;;;;;13.82;10.43;;;;;;;19.90;73.51;95290.16;5093285;27;20459;-69
2021/08/10 02:11:08;;;;;;;17.05;11.20;;;;;;;19.84;74.08;95294.72;5092033;28;20127;-69
2021/08/10 02:13:36;;;;;;;13.73;10.25;;;;;;;19.75;74.37;95288.47;5094649;27;20058;-69
2021/08/10 02:16:08;;;;;;;12.73;10.48;;;;;;;19.68;73.77;95289.53;5093291;28;20032;-69
2021/08/10 02:18:36;;;;;;;15.38;10.85;;;;;;;19.63;73.68;95284.31;5093539;27;20048;-69
2021/08/10 02:21:12;;;;;;;15.43;11.10;;;;;;;19.57;74.01;95288.06;5093736;27;20043;-69
2021/08/10 02:23:45;;;;;;;16.55;10.70;;;;;;;19.56;74.75;95291.75;5093179;28;20070;-70
2021/08/10 02:26:15;;;;;;;14.55;10.82;;;;;;;19.47;75.31;95288.91;5094174;27;20555;-69
2021/08/10 02:28:48;;;;;;;15.43;11.38;;;;;;;19.45;75.55;95295.53;5092645;28;20609;-69
2021/08/10 02:31:19;;;;;;;18.40;10.60;;;;;;;19.44;75.10;95299.22;5094312;27;20082;-69
2021/08/10 02:33:46;;;;;;;13.02;10.80;;;;;;;19.53;75.39;95308.16;5094579;28;20082;-69
2021/08/10 02:36:19;;;;;;;14.32;10.90;;;;;;;19.53;75.53;95302.88;5111055;27;20032;-69
2021/08/10 02:38:48;;;;;;;16.20;10.98;;;;;;;19.55;74.87;95306.00;5077497;27;20046;-69
2021/08/10 02:41:18;;;;;;;14.60;10.80;;;;;;;19.61;74.55;95304.94;5091378;27;20039;-69
2021/08/10 02:43:53;;;;;;;18.90;11.07;;;;;;;19.60;74.20;95292.78;5095792;27;20039;-69
2021/08/10 02:46:20;;;;;;;14.38;11.13;;;;;;;19.58;73.96;95304.69;5093081;28;20035;-69
2021/08/10 02:48:51;;;;;;;16.50;11.50;;;;;;;19.56;73.86;95301.53;5093231;27;20047;-69
2021/08/10 02:51:18;;;;;;;16.33;11.30;;;;;;;19.51;74.21;95291.00;5091451;27;20054;-69
2021/08/10 02:53:46;;;;;;;14.75;10.30;;;;;;;19.57;75.99;95303.91;5092308;28;20056;-69
2021/08/10 02:56:21;;;;;;;18.45;11.85;;;;;;;19.58;75.51;95310.75;5091715;28;20032;-69
2021/08/10 02:58:56;;;;;;;17.58;11.13;;;;;;;19.55;76.29;95306.00;5108136;27;20160;-69
2021/08/10 03:01:29;;;;;;;25.42;14.30;;;;;;;19.55;76.22;95310.53;5089686;27;20149;-69
2021/08/10 03:04:00;;;;;;;21.55;10.98;;;;;;;19.53;75.98;95313.44;5090635;28;20051;-69
2021/08/10 03:06:29;;;;;;;18.60;13.25;;;;;;;19.49;76.25;95318.47;5091971;28;20401;-69
2021/08/10 03:09:00;;;;;;;26.73;13.60;;;;;;;19.45;75.99;95321.97;5093805;27;20048;-69
2021/08/10 03:11:32;;;;;;;21.83;12.23;;;;;;;19.43;76.42;95318.81;5091965;28;20505;-69
2021/08/10 03:14:01;;;;;;;17.73;13.03;;;;;;;19.40;76.02;95327.28;5092112;27;20100;-69
2021/08/10 03:16:31;;;;;;;20.25;13.63;;;;;;;19.37;75.66;95323.31;5091929;27;20084;-69
2021/08/10 03:19:04;;;;;;;20.00;12.40;;;;;;;19.37;75.83;95319.88;5091093;28;20504;-69
2021/08/10 03:21:34;;;;;;;17.20;11.95;;;;;;;19.27;75.76;95313.59;5091767;28;20414;-69
2021/08/10 03:24:05;;;;;;;17.98;11.63;;;;;;;19.34;76.05;95331.00;5110814;27;20043;-68
2021/08/10 03:26:34;;;;;;;17.77;12.57;;;;;;;19.31;76.55;95323.63;5092694;27;20451;-69
2021/08/10 03:29:04;;;;;;;20.13;12.30;;;;;;;19.27;76.36;95323.38;5093597;27;20488;-69
2021/08/10 03:31:32;;;;;;;20.70;12.68;;;;;;;19.21;75.70;95317.34;5094659;27;20466;-69
2021/08/10 03:33:59;;;;;;;20.95;13.00;;;;;;;19.31;76.35;95331.56;5114483;27;20047;-69
2021/08/10 03:36:28;;;;;;;22.27;12.55;;;;;;;19.27;76.28;95334.72;5089886;28;20035;-69
2021/08/10 03:38:57;;;;;;;27.58;11.65;;;;;;;19.25;76.71;95334.22;5090895;28;20051;-69
2021/08/10 03:41:27;;;;;;;26.40;12.95;;;;;;;19.19;76.25;95334.50;5094925;27;20098;-69
2021/08/10 03:43:55;;;;;;;26.83;11.80;;;;;;;19.17;75.72;95342.69;5089751;28;20039;-69
2021/08/10 03:46:24;;;;;;;24.45;12.30;;;;;;;19.13;75.48;95346.97;5092384;27;20039;-69
2021/08/10 03:48:51;;;;;;;18.05;12.65;;;;;;;19.10;75.79;95334.28;5091576;27;20138;-69
2021/08/10 03:51:19;;;;;;;22.30;12.57;;;;;;;19.06;75.40;95343.81;5092588;28;20096;-69
2021/08/10 03:53:47;;;;;;;19.80;12.18;;;;;;;19.05;75.48;95334.31;5093986;27;20556;-69
2021/08/10 03:56:22;;;;;;;21.58;11.93;;;;;;;19.05;75.31;95342.22;5088801;28;20032;-69
2021/08/10 03:58:53;;;;;;;18.33;12.43;;;;;;;19.05;75.45;95334.31;5088701;28;20066;-69
2021/08/10 04:01:24;;;;;;;19.75;11.63;;;;;;;19.09;75.89;95340.66;5091688;27;20453;-69
2021/08/10 04:03:55;;;;;;;19.23;12.85;;;;;;;19.06;76.88;95346.47;5091506;28;20135;-69
2021/08/10 04:06:23;;;;;;;25.35;12.60;;;;;;;19.08;76.54;95344.34;5112094;27;20032;-69
2021/08/10 04:08:50;;;;;;;21.92;12.23;;;;;;;19.15;76.18;95336.91;5109662;27;20908;-68
2021/08/10 04:11:18;;;;;;;18.75;12.05;;;;;;;19.16;75.62;95329.78;5090770;28;20074;-68
2021/08/10 04:13:49;;;;;;;22.45;11.88;;;;;;;19.21;75.17;95333.19;5091783;27;20046;-69
2021/08/10 04:16:18;;;;;;;16.55;10.75;;;;;;;19.24;75.58;95337.91;5108616;27;20031;-68
2021/08/10 04:18:46;;;;;;;19.00;12.20;;;;;;;19.27;75.24;95332.09;5090985;27;20057;-68
2021/08/10 04:21:18;;;;;;;21.77;11.73;;;;;;;19.29;75.06;95335.25;5090912;27;20031;-68
2021/08/10 04:23:45;;;;;;;17.38;11.75;;;;;;;19.39;75.79;95337.06;5088677;28;20546;-68
2021/08/10 04:26:12;;;;;;;25.15;12.02;;;;;;;19.40;75.40;95338.63;5092183;27;20413;-69
2021/08/10 04:28:38;;;;;;;25.70;13.10;;;;;;;19.40;75.77;95332.56;5090917;28;20040;-68
2021/08/10 04:31:07;;;;;;;25.63;12.48;;;;;;;19.47;76.96;95335.69;5089407;27;20044;-69
2021/08/10 04:33:34;;;;;;;19.13;11.27;;;;;;;19.55;76.43;95342.22;5092901;28;20123;-68
2021/08/10 04:36:04;;;;;;;26.38;13.52;;;;;;;19.56;75.91;95344.59;5090697;28;20039;-68
2021/08/10 04:38:31;;;;;;;23.42;11.88;;;;;;;19.63;75.55;95350.34;5090815;28;20503;-68
2021/08/10 04:40:57;;;;;;;22.27;12.38;;;;;;;19.66;75.69;95349.81;5091194;27;20088;-68
2021/08/10 04:43:39;;;;;;;21.92;12.18;;;;;;;19.67;76.19;95338.16;5088139;28;20134;-69
2021/08/10 04:46:06;;;;;;;24.13;13.32;;;;;;;19.82;76.58;95355.00;5090326;27;20039;-69
2021/08/10 04:48:32;;;;;;;23.25;12.10;;;;;;;19.85;75.22;95346.53;5086744;28;20128;-68
2021/08/10 04:50:59;;;;;;;15.52;11.20;;;;;;;19.98;73.51;95351.16;5087521;28;20062;-69
2021/08/10 04:53:26;;;;;;;16.63;11.48;;;;;;;20.02;72.53;95349.56;5104616;28;20429;-68
2021/08/10 04:55:53;;;;;;;22.50;12.27;;;;;;;20.08;72.54;95354.78;5087700;28;20067;-68
2021/08/10 04:58:20;;;;;;;22.50;11.45;;;;;;;20.17;72.07;95353.13;5086098;28;20122;-69
2021/08/10 05:00:50;;;;;;;20.70;11.38;;;;;;;20.20;71.98;95352.56;5105055;28;20055;-68
2021/08/10 05:03:18;;;;;;;25.63;11.35;;;;;;;20.25;71.51;95349.88;5084981;28;20040;-70
2021/08/10 05:05:45;;;;;;;26.98;11.77;;;;;;;20.32;72.10;95360.91;5087271;28;20046;-69
2021/08/10 05:08:12;;;;;;;25.15;12.75;;;;;;;20.42;72.13;95366.09;5087978;28;20036;-69
2021/08/10 05:10:41;;;;;;;22.98;12.48;;;;;;;20.54;70.93;95362.28;5089215;28;20071;-69
2021/08/10 05:13:11;;;;;;;19.58;12.10;;;;;;;20.71;69.54;95361.88;5087615;28;20054;-69
2021/08/10 05:15:40;;;;;;;26.90;13.18;;;;;;;20.85;68.74;95367.25;5086531;28;20122;-69
2021/08/10 05:18:07;;;;;;;27.48;13.77;;;;;;;20.91;70.35;95371.44;5106374;28;20468;-68
2021/08/10 05:20:34;;;;;;;27.25;14.38;;;;;;;21.04;70.83;95375.25;5087713;28;20036;-68
2021/08/10 05:23:01;;;;;;;29.50;13.25;;;;;;;21.05;72.29;95371.53;5086505;28;20059;-68
2021/08/10 05:25:28;;;;;;;28.00;12.82;;;;;;;21.15;70.88;95374.84;5087868;28;20038;-69
2021/08/10 05:27:55;;;;;;;16.00;11.30;;;;;;;21.19;69.35;95367.91;5105334;28;20039;-68
2021/08/10 05:30:22;;;;;;;20.55;13.15;;;;;;;21.24;68.38;95368.91;5104917;28;20108;-68
2021/08/10 05:32:49;;;;;;;25.17;14.35;;;;;;;21.28;67.20;95376.00;5090397;28;20493;-68
2021/08/10 05:35:30;;;;;;;27.25;16.08;;;;;;;21.30;67.71;95383.66;5089341;28;20597;-68
2021/08/10 05:37:57;;;;;;;29.02;16.33;;;;;;;21.29;67.86;95382.09;5091184;28;20111;-68
2021/08/10 05:40:24;;;;;;;29.65;18.10;;;;;;;21.32;68.74;95381.50;5089626;28;20488;-69
2021/08/10 05:42:54;;;;;;;31.33;15.00;;;;;;;21.41;68.40;95385.13;5090389;28;20569;-68
2021/08/10 05:45:21;;;;;;;19.60;12.75;;;;;;;21.52;68.16;95381.28;5108296;28;20075;-68
2021/08/10 05:47:49;;;;;;;26.38;13.48;;;;;;;21.62;67.53;95371.59;5091336;28;20032;-68
2021/08/10 05:57:53;;;;;;;19.58;11.43;;;;;;;21.53;67.12;95361.63;5097975;27;20120;-69
2021/08/10 06:00:21;;;;;;;22.67;11.02;;;;;;;21.69;66.85;95369.38;5105854;27;20061;-69
2021/08/10 06:02:54;;;;;;;14.90;9.90;;;;;;;21.82;66.44;95373.94;5111899;27;20039;-70
2021/08/10 06:05:23;;;;;;;21.02;11.23;;;;;;;21.86;65.41;95368.84;5114429;27;20100;-69
2021/08/10 06:07:50;;;;;;;20.52;11.63;;;;;;;22.06;65.59;95381.00;5123360;27;20039;-70
2021/08/10 06:10:16;;;;;;;16.10;10.43;;;;;;;22.19;65.34;95382.91;5095910;27;20076;-70
2021/08/10 06:12:46;;;;;;;21.25;10.40;;;;;;;22.39;65.18;95378.34;5110147;27;20071;-69
2021/08/10 06:15:13;;;;;;;26.23;12.80;;;;;;;22.52;65.19;95370.41;5107334;28;20088;-70
2021/08/10 06:17:40;;;;;;;32.35;12.20;;;;;;;22.66;64.64;95365.09;5107311;28;20039;-69
2021/08/10 06:20:10;;;;;;;27.48;11.07;;;;;;;22.70;66.28;95367.97;5110931;27;20043;-70
2021/08/10 06:22:39;;;;;;;22.48;11.32;;;;;;;22.90;64.17;95374.75;5122277;27;20084;-67
2021/08/10 06:25:08;;;;;;;18.17;12.15;;;;;;;23.12;61.26;95374.09;5108686;27;20069;-67
2021/08/10 06:27:41;;;;;;;17.42;11.15;;;;;;;23.20;60.24;95377.91;5113503;27;20838;-67
2021/08/10 06:30:10;;;;;;;22.77;10.75;;;;;;;23.35;60.65;95379.44;5125836;27;20115;-67
2021/08/10 06:32:37;;;;;;;17.33;10.70;;;;;;;23.43;59.73;95376.09;5108179;27;20039;-67
2021/08/10 06:35:04;;;;;;;19.60;10.23;;;;;;;23.52;59.52;95378.84;5112409;27;20539;-67
2021/08/10 06:37:32;;;;;;;18.02;10.18;;;;;;;23.64;60.24;95360.47;5107104;27;20036;-67
2021/08/10 06:39:58;;;;;;;15.88;11.10;;;;;;;23.76;59.15;95363.38;5109002;27;20151;-67
2021/08/10 06:42:25;;;;;;;14.07;9.63;;;;;;;23.94;59.07;95363.53;5108305;28;20073;-67
2021/08/10 06:45:00;;;;;;;18.58;10.15;;;;;;;24.10;58.56;95362.06;5094913;27;20050;-67
2021/08/10 06:47:27;;;;;;;25.92;11.15;;;;;;;24.20;58.71;95366.34;5109641;27;20496;-67
2021/08/10 06:49:54;;;;;;;18.98;10.68;;;;;;;24.32;56.92;95363.91;5110292;27;20084;-67
2021/08/10 06:52:24;;;;;;;16.27;10.25;;;;;;;24.38;56.89;95359.25;5104731;27;20097;-67
2021/08/10 06:54:52;;;;;;;12.63;9.98;;;;;;;24.58;58.23;95363.28;5110538;27;20043;-68
2021/08/10 06:57:19;;;;;;;16.13;11.00;;;;;;;24.69;55.59;95366.47;5105382;27;20055;-67
2021/08/10 06:59:47;;;;;;;14.43;10.52;;;;;;;24.82;54.02;95365.56;5109173;27;20580;-68
2021/08/10 07:02:14;;;;;;;11.65;9.48;;;;;;;24.90;54.06;95367.50;5122060;27;20043;-68
2021/08/10 07:04:41;;;;;;;17.70;11.05;;;;;;;25.06;54.78;95365.16;5122305;27;20043;-68
2021/08/10 07:07:09;;;;;;;17.98;10.43;;;;;;;25.12;54.24;95357.78;5102777;28;20055;-68
2021/08/10 07:09:39;;;;;;;21.65;10.52;;;;;;;25.38;53.74;95371.97;5093030;27;20043;-68
2021/08/10 07:12:06;;;;;;;14.05;9.90;;;;;;;25.44;52.40;95374.50;5093959;28;20496;-68
2021/08/10 07:14:37;;;;;;;20.15;10.43;;;;;;;25.52;52.16;95376.41;5096634;27;20049;-68
2021/08/10 07:17:05;;;;;;;16.92;10.20;;;;;;;25.61;52.16;95374.53;5093936;27;20039;-69
2021/08/10 07:19:33;;;;;;;13.98;10.43;;;;;;;25.73;52.53;95377.34;5093561;27;20043;-69
2021/08/10 07:22:02;;;;;;;15.60;9.55;;;;;;;25.80;51.03;95360.06;5095369;27;20042;-69
2021/08/10 07:24:32;;;;;;;13.57;9.82;;;;;;;26.00;50.47;95370.16;5093909;28;23018;-69
2021/08/10 07:26:59;;;;;;;14.90;9.18;;;;;;;26.05;49.70;95366.50;5098623;27;20040;-69
2021/08/10 07:29:30;;;;;;;22.63;10.65;;;;;;;26.19;50.75;95366.34;5093849;27;20043;-69
2021/08/10 07:31:59;;;;;;;13.88;9.23;;;;;;;26.33;49.11;95364.25;5090284;28;20085;-69
2021/08/10 07:34:28;;;;;;;11.20;9.35;;;;;;;26.42;49.03;95359.69;5089416;28;20463;-69
2021/08/10 07:37:15;;;;;;;18.38;10.30;;;;;;;26.49;48.16;95354.63;5090048;28;20089;-69
2021/08/10 07:39:41;;;;;;;14.88;10.95;;;;;;;26.57;49.62;95350.34;5090187;28;20065;-69
2021/08/10 07:42:16;;;;;;;14.48;10.35;;;;;;;26.79;49.14;95352.00;5091827;28;20039;-68
2021/08/10 07:44:44;;;;;;;16.17;9.75;;;;;;;26.88;47.89;95354.63;5091405;28;20044;-70
2021/08/10 07:47:11;;;;;;;17.10;9.63;;;;;;;27.12;47.25;95356.72;5093067;27;20370;-69
2021/08/10 07:49:38;;;;;;;14.60;9.50;;;;;;;27.36;46.85;95358.78;5090751;28;20051;-69
2021/08/10 07:52:05;;;;;;;15.75;9.65;;;;;;;27.48;46.48;95350.06;5091707;27;20071;-69
2021/08/10 07:54:32;;;;;;;12.18;9.50;;;;;;;27.63;45.71;95346.78;5090316;28;20076;-69
2021/08/10 07:57:00;;;;;;;12.32;8.00;;;;;;;27.83;45.25;95349.78;5089960;28;20142;-69
2021/08/10 07:59:27;;;;;;;14.18;8.55;;;;;;;27.96;43.62;95359.44;5087556;27;20051;-69
2021/08/10 08:01:55;;;;;;;14.23;9.55;;;;;;;28.08;44.13;95355.25;5088187;27;20069;-69
2021/08/10 08:04:23;;;;;;;16.30;10.18;;;;;;;28.18;43.51;95349.47;5089674;28;20051;-70
2021/08/10 08:06:51;;;;;;;13.13;9.45;;;;;;;28.36;42.95;95350.06;5107348;28;20034;-69
2021/08/10 08:09:19;;;;;;;14.25;8.77;;;;;;;28.59;42.46;95353.13;5108202;27;20043;-69
2021/08/10 08:11:46;;;;;;;12.52;8.70;;;;;;;28.68;42.53;95343.09;5087523;27;20059;-70
2021/08/10 08:14:16;;;;;;;23.48;8.93;;;;;;;29.01;41.87;95342.22;5089184;28;20108;-69
2021/08/10 08:16:45;;;;;;;15.55;7.95;;;;;;;29.24;42.19;95355.16;5088390;28;20137;-71
2021/08/10 08:19:16;;;;;;;14.20;8.45;;;;;;;29.37;39.62;95337.94;5091936;28;20454;-70
2021/08/10 08:21:44;;;;;;;13.05;8.30;;;;;;;29.61;39.33;95347.03;5091745;28;20052;-70
2021/08/10 08:24:11;;;;;;;17.75;8.90;;;;;;;29.86;38.92;95353.13;5111099;27;20412;-71
2021/08/10 08:26:38;;;;;;;10.02;7.78;;;;;;;30.05;37.82;95349.78;5107878;27;20586;-71
2021/08/10 08:29:05;;;;;;;14.48;8.20;;;;;;;30.16;37.96;95345.50;5089277;28;20564;-71
2021/08/10 08:31:32;;;;;;;12.55;8.25;;;;;;;30.18;40.14;95353.97;5089922;28;20104;-71
2021/08/10 08:33:59;;;;;;;15.98;8.85;;;;;;;30.30;39.36;95350.44;5092740;27;20031;-71
2021/08/10 08:36:26;;;;;;;9.00;7.35;;;;;;;30.39;40.31;95350.31;5092662;27;20047;-71
2021/08/10 08:38:54;;;;;;;17.35;8.50;;;;;;;30.52;37.40;95341.03;5088422;27;20039;-71
2021/08/10 08:41:21;;;;;;;16.33;8.48;;;;;;;30.75;36.93;95335.03;5093123;28;20073;-70
2021/08/10 08:43:49;;;;;;;16.08;8.02;;;;;;;30.93;38.04;95328.19;5090892;28;20520;-71
2021/08/10 08:46:20;;;;;;;17.83;8.10;;;;;;;31.05;38.66;95325.38;5089081;27;20063;-71
2021/08/10 08:48:48;;;;;;;11.63;7.53;;;;;;;31.36;37.45;95329.13;5088529;28;20363;-71
2021/08/10 08:51:24;;;;;;;8.82;7.93;;;;;;;31.64;35.33;95328.19;5084044;28;20059;-72
2021/08/10 08:53:54;;;;;;;11.38;8.68;;;;;;;31.81;34.41;95332.34;5084920;28;20415;-71
2021/08/10 08:56:26;;;;;;;8.30;6.82;;;;;;;32.00;33.50;95328.88;5083369;28;20520;-72
2021/08/10 08:58:57;;;;;;;14.32;7.35;;;;;;;31.99;34.65;95327.31;5081113;28;20138;-72
2021/08/10 09:01:27;;;;;;;9.35;7.65;;;;;;;32.09;37.01;95325.97;5081275;28;20480;-72
2021/08/10 09:03:54;;;;;;;9.77;7.93;;;;;;;32.50;33.18;95319.00;5083055;28;20649;-72
2021/08/10 09:06:22;;;;;;;7.63;6.85;;;;;;;32.60;33.56;95316.84;5084197;28;20056;-72
2021/08/10 09:08:55;;;;;;;13.73;7.50;;;;;;;32.76;31.99;95304.00;5086571;28;20051;-72
2021/08/10 09:11:28;;;;;;;14.10;7.20;;;;;;;32.90;31.47;95309.63;5082664;28;20086;-72
2021/08/10 09:14:03;;;;;;;13.93;6.35;;;;;;;32.92;31.83;95307.31;5084362;28;20497;-71
2021/08/10 09:20:22;;;;;;;12.68;5.85;;;;;;;33.61;27.88;95300.91;4965010;28;20535;-72
2021/08/10 09:22:55;;;;;;;8.93;7.03;;;;;;;33.84;27.61;95295.41;4965969;28;20500;-72
2021/08/10 09:25:34;;;;;;;11.18;6.30;;;;;;;34.15;26.14;95281.81;4968442;28;20054;-72
2021/08/10 09:28:09;;;;;;;6.78;4.85;;;;;;;34.47;25.62;95296.41;4967081;28;20045;-73
2021/08/10 09:30:43;;;;;;;10.38;5.13;;;;;;;34.77;25.15;95290.09;4964832;28;20104;-73
2021/08/10 09:33:10;;;;;;;7.22;5.40;;;;;;;35.15;24.97;95292.63;4967750;28;20085;-73
2021/08/10 09:35:45;;;;;;;9.50;5.53;;;;;;;35.02;26.50;95290.25;4965480;28;20043;-73
2021/08/10 09:38:17;;;;;;;7.15;4.88;;;;;;;35.31;24.55;95284.22;4965927;28;20046;-72
2021/08/10 09:40:48;;;;;;;10.27;5.32;;;;;;;35.25;24.70;95280.34;4981177;28;20813;-73
2021/08/10 09:43:25;;;;;;;8.63;4.88;;;;;;;34.63;26.35;95276.44;4982124;28;20078;-73
2021/08/10 09:46:08;;;;;;;8.35;5.80;;;;;;;35.21;25.77;95275.66;4965754;28;20043;-72
2021/08/10 09:48:37;;;;;;;10.60;5.03;;;;;;;35.46;25.89;95275.00;4964070;28;20459;-73
2021/08/10 09:51:21;;;;;;;9.43;5.68;;;;;;;35.33;25.82;95265.66;4962021;28;20121;-73
2021/08/10 09:54:08;;;;;;;6.88;5.03;;;;;;;35.95;24.74;95268.19;4964806;28;20079;-73
2021/08/10 09:56:40;;;;;;;12.68;6.57;;;;;;;36.22;24.57;95269.81;5006067;28;20044;-73
2021/08/10 09:59:07;;;;;;;9.88;6.43;;;;;;;35.85;25.15;95263.53;5062154;28;20784;-73
2021/08/10 10:01:39;;;;;;;6.53;4.93;;;;;;;36.01;24.14;95262.41;5061463;28;20135;-72
2021/08/10 10:04:15;;;;;;;10.02;5.50;;;;;;;36.38;23.08;95272.16;5063156;28;20048;-73
2021/08/10 10:06:48;;;;;;;8.25;5.07;;;;;;;36.43;23.14;95263.59;5061876;28;20050;-73
2021/08/10 10:09:15;;;;;;;11.43;5.13;;;;;;;36.31;23.23;95257.41;5064678;28;20044;-73
2021/08/10 10:11:46;;;;;;;6.72;4.78;;;;;;;36.63;21.73;95261.28;5065385;28;20053;-74
2021/08/10 10:14:16;;;;;;;7.43;4.45;;;;;;;36.60;21.94;95251.97;5062376;28;20052;-73
2021/08/10 10:16:46;;;;;;;5.38;4.03;;;;;;;36.72;20.79;95248.88;5064640;28;20052;-73
2021/08/10 10:19:14;;;;;;;8.55;4.97;;;;;;;36.98;21.01;95249.59;5063861;28;20033;-73
2021/08/10 10:21:52;;;;;;;5.88;3.53;;;;;;;37.21;19.96;95246.44;5063375;28;20064;-73
2021/08/10 10:24:21;;;;;;;9.18;4.03;;;;;;;37.00;21.87;95247.25;5062711;28;20052;-73
2021/08/10 10:26:58;;;;;;;4.55;3.08;;;;;;;37.56;19.36;95238.53;5065261;28;20076;-71
2021/08/10 10:29:27;;;;;;;7.90;3.60;;;;;;;37.62;18.84;95247.84;5063192;28;20040;-73
2021/08/10 10:31:55;;;;;;;8.88;3.40;;;;;;;37.62;19.24;95248.59;5063816;28;20070;-73
2021/08/10 10:34:22;;;;;;;8.02;4.00;;;;;;;37.62;19.54;95242.41;5063388;28;20050;-72
2021/08/10 10:36:50;;;;;;;7.32;3.42;;;;;;;37.44;19.44;95237.06;5063246;28;22550;-72
2021/08/10 10:39:29;;;;;;;7.72;3.47;;;;;;;37.64;19.21;95237.38;5053527;28;20067;-72
2021/08/10 10:42:02;;;;;;;8.27;4.72;;;;;;;37.93;21.92;95239.91;5067548;28;20052;-72
2021/08/10 10:44:36;;;;;;;8.18;3.97;;;;;;;37.99;19.88;95238.31;5067793;28;20036;-72
2021/08/10 10:47:24;;;;;;;12.07;4.35;;;;;;;38.38;20.43;95231.81;5065672;28;20044;-72
2021/08/10 10:49:57;;;;;;;7.32;3.70;;;;;;;38.52;19.21;95223.53;5065200;28;20120;-72
2021/08/10 10:52:24;;;;;;;6.28;3.67;;;;;;;38.62;19.85;95230.81;5063075;28;20049;-72
2021/08/10 10:54:53;;;;;;;7.38;3.53;;;;;;;38.36;19.33;95223.28;5067613;28;20048;-71
2021/08/10 10:57:29;;;;;;;9.35;4.18;;;;;;;38.38;19.21;95229.09;5097668;27;20421;-72
2021/08/10 11:00:05;;;;;;;11.88;3.72;;;;;;;38.67;21.06;95220.69;5107590;28;20085;-72
2021/08/10 11:02:33;;;;;;;8.00;3.22;;;;;;;38.95;18.60;95222.31;5109095;27;20401;-72
2021/08/10 11:05:05;;;;;;;8.27;4.38;;;;;;;39.35;18.01;95225.41;5110974;27;20063;-71
2021/08/10 11:07:33;;;;;;;7.47;3.95;;;;;;;39.27;19.62;95219.25;5109846;27;20513;-72
2021/08/10 11:10:00;;;;;;;9.15;4.15;;;;;;;39.36;18.89;95200.47;5115453;27;20054;-73
2021/08/10 11:12:45;;;;;;;7.97;3.67;;;;;;;39.19;18.63;95212.38;5110667;27;20047;-73
2021/08/10 11:15:20;;;;;;;8.93;4.15;;;;;;;39.35;18.80;95215.28;5095283;27;20078;-73
2021/08/10 11:18:10;;;;;;;5.80;3.58;;;;;;;39.66;19.42;95211.78;5108051;27;20032;-74
2021/08/10 11:21:06;;;;;;;4.57;3.70;;;;;;;39.71;17.11;95203.91;5098304;27;20059;-74
2021/08/10 11:23:35;;;;;;;6.82;3.95;;;;;;;39.76;18.81;95208.91;5091112;28;20054;-74
2021/08/10 11:26:02;;;;;;;9.30;3.67;;;;;;;39.91;19.59;95212.22;5107616;28;20039;-73
2021/08/10 11:28:37;;;;;;;6.90;3.92;;;;;;;40.17;18.25;95209.09;5107063;28;20031;-75
2021/08/10 11:31:09;;;;;;;6.70;3.90;;;;;;;40.54;18.37;95207.34;5105459;28;20405;-74
2021/08/10 11:33:40;;;;;;;11.73;7.00;;;;;;;40.81;18.35;95210.75;5107768;27;20040;-75
2021/08/10 11:36:10;;;;;;;14.75;8.82;;;;;;;40.76;18.12;95208.47;5087509;28;20056;-73
2021/08/10 11:38:52;;;;;;;11.73;4.20;;;;;;;40.76;18.30;95207.69;5106396;27;20042;-74
2021/08/10 11:41:39;;;;;;;20.15;4.93;;;;;;;40.42;18.40;95204.00;5107271;28;20043;-73
2021/08/10 11:44:18;;;;;;;5.40;3.80;;;;;;;40.46;18.35;95199.28;5106252;28;20044;-74
2021/08/10 11:46:47;;;;;;;9.40;4.22;;;;;;;40.30;17.84;95199.91;5106224;28;20048;-74
2021/08/10 11:49:19;;;;;;;13.35;4.32;;;;;;;40.34;18.52;95194.38;5106264;27;20040;-75